Terminal Aerodrome Forecast
Issued by NWS Memphis, TN

Home | Current Version | Previous Version | Text Only | Print | Product List | Glossary On
Versions: 1 2 3 4 5 6 7 8 9 10 11 12 13 14 15 16 17 18
000
FTUS44 KMEG 261721
TAFJBR
TAF
KJBR 261721Z 2618/2718 36010KT P6SM BKN015 OVC025
     FM261900 01008KT P6SM FEW025 BKN035
     FM270100 VRB03KT P6SM FEW045 SCT250
     FM271500 28008KT P6SM SCT050 BKN250=

USA.gov is the U.S. government's official web portal to all federal, state and local government web resources and services.